createdAt,value
2023-05-17T00:00:39.834Z,6.70
2023-05-17T00:03:08.263Z,5.37
2023-05-17T00:05:36.603Z,5.77
2023-05-17T00:08:07.069Z,6.27
2023-05-17T00:10:35.345Z,5.90
2023-05-17T00:13:04.537Z,6.80
2023-05-17T00:15:32.854Z,6.57
2023-05-17T00:18:01.255Z,5.70
2023-05-17T00:20:29.757Z,6.30
2023-05-17T00:22:58.016Z,6.40
2023-05-17T00:25:28.442Z,7.03
2023-05-17T00:27:56.845Z,6.67
2023-05-17T00:30:25.129Z,7.30
2023-05-17T00:32:53.752Z,7.07
2023-05-17T00:35:22.356Z,5.43
2023-05-17T00:37:50.741Z,6.27
2023-05-17T00:40:19.161Z,5.60
2023-05-17T00:42:49.091Z,5.90
2023-05-17T00:45:17.351Z,6.10
2023-05-17T00:47:45.655Z,6.37
2023-05-17T00:50:14.143Z,7.03
2023-05-17T00:52:42.551Z,8.07
2023-05-17T00:55:11.023Z,5.77
2023-05-17T00:57:39.593Z,6.27
2023-05-17T01:00:10.808Z,6.37
2023-05-17T01:02:39.300Z,5.77
2023-05-17T01:05:08.250Z,6.50
2023-05-17T01:07:36.611Z,6.17
2023-05-17T01:10:05.300Z,5.57
2023-05-17T01:12:43.942Z,6.20
2023-05-17T01:15:17.697Z,6.83
2023-05-17T01:17:55.777Z,6.33
2023-05-17T01:20:29.905Z,5.80
2023-05-17T01:23:12.453Z,8.60
2023-05-17T01:25:56.493Z,5.60
2023-05-17T01:28:27.834Z,6.10
2023-05-17T01:30:59.970Z,5.50
2023-05-17T01:33:28.983Z,5.83
2023-05-17T01:35:57.542Z,5.50
2023-05-17T01:38:25.832Z,5.10
2023-05-17T01:41:00.144Z,5.50
2023-05-17T01:43:37.055Z,5.00
2023-05-17T01:46:14.030Z,5.10
2023-05-17T01:48:51.586Z,4.70
2023-05-17T01:51:22.412Z,4.70
2023-05-17T01:53:58.569Z,4.07
2023-05-17T01:56:34.838Z,4.50
2023-05-17T01:59:08.210Z,5.80
2023-05-17T02:01:37.905Z,4.33
2023-05-17T02:04:06.476Z,4.67
2023-05-17T02:06:34.757Z,4.63
2023-05-17T02:09:03.344Z,3.90
2023-05-17T02:11:32.464Z,4.33
2023-05-17T02:14:00.772Z,4.87
2023-05-17T02:16:30.917Z,4.30
2023-05-17T02:18:59.516Z,4.87
2023-05-17T02:21:27.814Z,3.80
2023-05-17T02:23:56.088Z,4.33
2023-05-17T02:26:24.521Z,4.97
2023-05-17T02:28:52.836Z,3.93
2023-05-17T02:31:21.280Z,4.63
2023-05-17T02:33:51.042Z,4.70
2023-05-17T02:36:19.411Z,4.10
2023-05-17T02:38:47.869Z,3.80
2023-05-17T02:41:16.152Z,4.00
2023-05-17T02:43:44.513Z,4.17
2023-05-17T02:46:12.824Z,3.90
2023-05-17T02:48:41.123Z,3.30
2023-05-17T02:51:11.085Z,3.47
2023-05-17T02:53:39.343Z,3.10
2023-05-17T02:56:08.472Z,3.00
2023-05-17T02:58:36.763Z,3.57
2023-05-17T03:01:06.220Z,3.43
2023-05-17T03:03:34.776Z,3.60
2023-05-17T03:06:05.004Z,3.80
2023-05-17T03:08:34.994Z,3.60
2023-05-17T03:11:04.056Z,3.27
2023-05-17T03:13:32.393Z,4.10
2023-05-17T03:16:00.882Z,4.30
2023-05-17T03:18:29.481Z,3.30
2023-05-17T03:20:57.922Z,4.27
2023-05-17T03:23:26.250Z,3.10
2023-05-17T03:25:56.030Z,3.83
2023-05-17T03:28:24.341Z,3.20
2023-05-17T03:30:53.295Z,3.23
2023-05-17T03:33:21.776Z,4.07
2023-05-17T03:35:50.370Z,3.80
2023-05-17T03:38:18.823Z,3.33
2023-05-17T03:40:47.106Z,3.90
2023-05-17T03:43:16.779Z,3.50
2023-05-17T03:45:45.207Z,3.70
2023-05-17T03:48:13.633Z,4.43
2023-05-17T03:50:42.259Z,3.87
2023-05-17T03:53:11.221Z,3.63
2023-05-17T03:55:40.053Z,3.50
2023-05-17T03:58:08.427Z,3.87
2023-05-17T04:00:38.318Z,4.30
2023-05-17T04:03:06.616Z,3.83
2023-05-17T04:05:34.892Z,4.10
2023-05-17T04:08:03.352Z,3.30
2023-05-17T04:10:31.969Z,3.87
2023-05-17T04:13:00.373Z,3.97
2023-05-17T04:15:28.887Z,4.37
2023-05-17T04:18:00.023Z,3.70
2023-05-17T04:20:28.600Z,3.70
2023-05-17T04:22:56.891Z,3.10
2023-05-17T04:25:25.321Z,3.40
2023-05-17T04:27:53.603Z,4.00
2023-05-17T04:30:24.154Z,3.47
2023-05-17T04:32:52.509Z,3.80
2023-05-17T04:35:22.294Z,3.40
2023-05-17T04:37:50.697Z,4.37
2023-05-17T04:40:19.137Z,3.57
2023-05-17T04:42:47.715Z,4.10
2023-05-17T04:45:16.329Z,3.73
2023-05-17T04:47:44.987Z,3.37
2023-05-17T04:50:13.692Z,3.87
2023-05-17T04:52:43.405Z,3.60
2023-05-17T04:55:11.923Z,3.47
2023-05-17T04:57:40.256Z,3.50
2023-05-17T05:00:10.284Z,4.17
2023-05-17T05:02:38.699Z,3.80
2023-05-17T05:05:08.026Z,3.13
2023-05-17T05:07:36.515Z,3.40
2023-05-17T05:10:07.108Z,3.17
2023-05-17T05:12:35.428Z,3.50
2023-05-17T05:15:03.811Z,3.60
2023-05-17T05:17:32.582Z,4.30
2023-05-17T05:20:01.012Z,3.80
2023-05-17T05:22:29.409Z,3.47
2023-05-17T05:24:57.850Z,4.17
2023-05-17T05:27:27.628Z,3.47
2023-05-17T05:29:56.998Z,4.20
2023-05-17T05:32:25.436Z,4.13
2023-05-17T05:34:53.897Z,3.87
2023-05-17T05:37:22.167Z,3.83
2023-05-17T05:39:50.405Z,4.07
2023-05-17T05:42:18.904Z,3.93
2023-05-17T05:44:48.707Z,4.03
2023-05-17T05:47:17.039Z,3.93
2023-05-17T05:49:45.345Z,3.60
2023-05-17T05:52:13.660Z,3.33
2023-05-17T05:54:41.970Z,4.40
2023-05-17T05:57:10.322Z,4.13
2023-05-17T05:59:38.553Z,3.70
2023-05-17T06:02:08.635Z,3.87
2023-05-17T06:04:45.214Z,4.23
2023-05-17T06:07:14.527Z,3.43
2023-05-17T06:09:43.213Z,4.40
2023-05-17T06:12:11.743Z,4.20
2023-05-17T06:14:40.079Z,3.80
2023-05-17T06:17:09.770Z,3.67
2023-05-17T06:19:38.207Z,3.47
2023-05-17T06:22:06.809Z,3.43
2023-05-17T06:24:35.056Z,4.00
2023-05-17T06:27:03.366Z,3.60
2023-05-17T06:29:31.845Z,3.77
2023-05-17T06:32:00.135Z,3.70
2023-05-17T06:34:29.962Z,4.03
2023-05-17T06:36:58.342Z,3.10
2023-05-17T06:39:26.936Z,4.17
2023-05-17T06:41:55.180Z,3.57
2023-05-17T06:44:23.523Z,4.17
2023-05-17T06:46:51.850Z,3.87
2023-05-17T06:49:20.116Z,3.97
2023-05-17T06:51:50.078Z,3.50
2023-05-17T06:54:19.736Z,4.07
2023-05-17T06:56:48.073Z,3.30
2023-05-17T06:59:16.717Z,3.53
2023-05-17T07:01:44.958Z,6.07
2023-05-17T07:04:13.511Z,3.87
2023-05-17T07:06:41.973Z,4.27
2023-05-17T07:09:11.805Z,3.87
2023-05-17T07:11:40.373Z,3.30
2023-05-17T07:14:08.915Z,3.40
2023-05-17T07:16:37.215Z,3.50
2023-05-17T07:19:05.724Z,3.07
2023-05-17T07:21:35.229Z,3.10
2023-05-17T07:24:03.606Z,3.10
2023-05-17T07:26:33.432Z,3.60
2023-05-17T07:29:01.797Z,4.33
2023-05-17T07:31:30.145Z,3.50
2023-05-17T07:33:58.575Z,3.53
2023-05-17T07:36:30.681Z,3.23
2023-05-17T07:38:59.745Z,4.47
2023-05-17T07:41:28.086Z,3.37
2023-05-17T07:43:57.784Z,3.13
2023-05-17T07:46:26.266Z,3.73
2023-05-17T07:48:58.148Z,3.87
2023-05-17T07:51:27.253Z,3.30
2023-05-17T07:53:55.582Z,3.40
2023-05-17T07:56:24.184Z,3.97
2023-05-17T07:58:52.658Z,3.90
2023-05-17T08:01:23.300Z,3.87
2023-05-17T08:03:51.694Z,3.90
2023-05-17T08:06:20.398Z,3.63
2023-05-17T08:08:48.700Z,3.60
2023-05-17T08:11:18.244Z,3.67
2023-05-17T08:13:46.539Z,4.27
2023-05-17T08:16:15.085Z,3.73
2023-05-17T08:18:45.296Z,3.70
2023-05-17T08:21:13.728Z,4.30
2023-05-17T08:23:42.813Z,4.53
2023-05-17T08:26:12.668Z,5.50
2023-05-17T08:28:41.026Z,3.93
2023-05-17T08:31:09.263Z,7.13
2023-05-17T08:33:37.869Z,4.10
2023-05-17T08:36:08.914Z,4.53
2023-05-17T08:38:37.421Z,8.30
2023-05-17T08:41:05.928Z,12.17
2023-05-17T08:43:34.272Z,11.70
2023-05-17T08:46:04.367Z,7.60
2023-05-17T08:48:36.954Z,6.33
2023-05-17T08:51:05.592Z,8.20
2023-05-17T08:53:36.826Z,5.57
2023-05-17T08:56:07.198Z,5.40
2023-05-17T08:58:52.432Z,5.13
2023-05-17T09:01:26.913Z,4.53
2023-05-17T09:03:56.567Z,4.47
2023-05-17T09:06:25.540Z,4.40
2023-05-17T09:08:55.979Z,5.10
2023-05-17T09:11:28.864Z,4.30
2023-05-17T09:14:00.345Z,4.50
2023-05-17T09:16:30.448Z,10.80
2023-05-17T09:19:00.032Z,9.10
2023-05-17T09:21:31.751Z,5.87
2023-05-17T09:24:07.068Z,5.70
2023-05-17T09:26:40.585Z,5.80
2023-05-17T09:29:13.149Z,6.10
2023-05-17T09:31:41.850Z,7.50
2023-05-17T09:34:10.645Z,4.70
2023-05-17T09:36:44.753Z,6.80
2023-05-17T09:39:15.362Z,5.90
2023-05-17T09:41:46.825Z,5.30
2023-05-17T09:44:16.778Z,4.67
2023-05-17T09:46:47.536Z,5.33
2023-05-17T09:49:16.906Z,4.60
2023-05-17T09:51:46.993Z,6.10
2023-05-17T09:54:17.888Z,5.23
2023-05-17T09:56:46.682Z,4.63
2023-05-17T09:59:16.253Z,5.00
2023-05-17T10:01:46.227Z,4.33
2023-05-17T10:04:15.184Z,4.47
2023-05-17T10:06:49.579Z,4.70
2023-05-17T10:09:24.207Z,4.17
2023-05-17T10:11:54.166Z,3.90
2023-05-17T10:14:27.937Z,3.83
2023-05-17T10:16:57.356Z,3.97
2023-05-17T10:19:26.953Z,4.53
2023-05-17T10:22:00.302Z,3.70
2023-05-17T10:24:38.764Z,4.17
2023-05-17T10:27:08.210Z,3.77
2023-05-17T10:29:39.729Z,4.83
2023-05-17T10:32:09.475Z,4.50
2023-05-17T10:34:39.328Z,4.87
2023-05-17T10:37:08.373Z,3.80
2023-05-17T10:39:39.054Z,4.50
2023-05-17T10:44:41.139Z,4.43
2023-05-17T10:47:09.926Z,3.90
2023-05-17T10:49:41.632Z,4.40
2023-05-17T10:52:14.507Z,3.77
2023-05-17T10:54:46.104Z,4.03
2023-05-17T10:57:22.043Z,4.13
2023-05-17T10:59:59.183Z,3.77
2023-05-17T11:02:28.820Z,4.70
2023-05-17T11:04:58.104Z,4.50
2023-05-17T11:07:32.793Z,4.27
2023-05-17T11:10:11.482Z,4.20
2023-05-17T11:12:42.238Z,4.17
2023-05-17T11:15:11.761Z,4.63
2023-05-17T11:17:54.920Z,4.57
2023-05-17T11:20:35.028Z,4.47
2023-05-17T11:23:06.050Z,3.77
2023-05-17T11:25:37.077Z,4.10
2023-05-17T11:28:11.072Z,4.57
2023-05-17T11:30:51.141Z,4.10
2023-05-17T11:33:29.783Z,4.47
2023-05-17T11:36:07.081Z,4.87
2023-05-17T11:38:35.841Z,4.20
2023-05-17T11:43:54.707Z,4.30
2023-05-17T11:46:24.335Z,4.13
2023-05-17T11:48:54.301Z,4.33
2023-05-17T11:51:25.099Z,4.90
2023-05-17T11:53:55.839Z,5.37
2023-05-17T11:56:39.544Z,5.40
2023-05-17T11:59:11.684Z,4.80
2023-05-17T12:01:47.417Z,4.40
2023-05-17T12:04:16.386Z,5.00
2023-05-17T12:06:46.365Z,5.17
2023-05-17T12:09:17.964Z,5.03
2023-05-17T12:11:47.974Z,5.07
2023-05-17T12:14:20.464Z,5.83
2023-05-17T12:16:52.835Z,4.83
2023-05-17T12:19:28.072Z,4.23
2023-05-17T12:22:07.346Z,4.67
2023-05-17T12:24:39.830Z,5.10
2023-05-17T12:27:09.959Z,5.10
2023-05-17T12:29:38.382Z,4.67
2023-05-17T12:32:09.376Z,5.53
2023-05-17T12:34:37.947Z,4.50
2023-05-17T12:37:10.917Z,5.50
2023-05-17T12:39:39.890Z,5.30
2023-05-17T12:42:10.899Z,5.50
2023-05-17T12:44:39.273Z,5.63
2023-05-17T12:47:08.199Z,6.10
2023-05-17T12:49:40.539Z,5.37
2023-05-17T12:52:09.325Z,5.27
2023-05-17T12:54:37.680Z,5.70
2023-05-17T12:57:16.144Z,5.23
2023-05-17T12:59:49.270Z,4.87
2023-05-17T13:02:18.180Z,5.67
2023-05-17T13:04:47.561Z,5.73
2023-05-17T13:07:24.298Z,5.63
2023-05-17T13:09:52.907Z,6.00
2023-05-17T13:12:24.029Z,6.00
2023-05-17T13:14:54.830Z,6.27
2023-05-17T13:17:27.138Z,5.30
2023-05-17T13:19:57.925Z,5.73
2023-05-17T13:22:26.521Z,5.40
2023-05-17T13:24:55.278Z,5.47
2023-05-17T13:27:25.036Z,6.13
2023-05-17T13:29:53.637Z,5.40
2023-05-17T13:32:22.832Z,5.73
2023-05-17T13:34:51.418Z,5.13
2023-05-17T13:37:21.204Z,5.83
2023-05-17T13:39:49.673Z,6.03
2023-05-17T13:42:18.044Z,6.50
2023-05-17T13:44:47.808Z,6.13
2023-05-17T13:47:16.160Z,6.27
2023-05-17T13:49:44.504Z,5.80
2023-05-17T13:52:13.494Z,6.10
2023-05-17T13:54:41.821Z,5.30
2023-05-17T13:57:10.110Z,5.23
2023-05-17T13:59:39.379Z,6.20
2023-05-17T14:02:10.607Z,6.30
2023-05-17T14:04:39.586Z,5.67
2023-05-17T14:07:07.946Z,5.70
2023-05-17T14:09:37.032Z,6.83
2023-05-17T14:12:06.281Z,5.87
2023-05-17T14:14:34.671Z,5.40
2023-05-17T14:17:03.222Z,5.67
2023-05-17T14:19:33.295Z,5.77
2023-05-17T14:22:01.864Z,6.30
2023-05-17T14:24:30.210Z,5.40
2023-05-17T14:26:58.877Z,5.70
2023-05-17T14:29:27.354Z,6.50
2023-05-17T14:31:55.707Z,5.97
2023-05-17T14:34:23.999Z,5.67
2023-05-17T14:36:54.766Z,6.80
2023-05-17T14:39:23.148Z,5.73
2023-05-17T14:41:51.676Z,6.27
2023-05-17T14:44:19.930Z,6.00
2023-05-17T14:46:48.222Z,5.90
2023-05-17T14:49:16.616Z,5.43
2023-05-17T14:51:45.187Z,6.27
2023-05-17T14:54:14.984Z,7.27
2023-05-17T14:56:45.531Z,5.87
2023-05-17T14:59:13.965Z,5.80
2023-05-17T15:01:42.477Z,7.20
2023-05-17T15:04:10.900Z,5.40
2023-05-17T15:06:39.385Z,6.47
2023-05-17T15:09:08.062Z,6.30
2023-05-17T15:11:37.923Z,5.77
2023-05-17T15:14:06.740Z,6.13
2023-05-17T15:16:36.350Z,6.37
2023-05-17T15:19:04.854Z,7.07
2023-05-17T15:21:33.195Z,6.13
2023-05-17T15:24:01.478Z,6.87
2023-05-17T15:26:29.865Z,6.80
2023-05-17T15:28:59.582Z,5.50
2023-05-17T15:31:29.935Z,6.07
2023-05-17T15:33:58.823Z,7.07
2023-05-17T15:36:27.224Z,6.40
2023-05-17T15:38:55.596Z,6.70
2023-05-17T15:41:29.791Z,6.90
2023-05-17T15:43:59.868Z,6.40
2023-05-17T15:46:28.271Z,5.90
2023-05-17T15:48:58.120Z,6.37
2023-05-17T15:51:26.753Z,6.60
2023-05-17T15:53:55.139Z,6.73
2023-05-17T15:56:23.538Z,5.80
2023-05-17T15:58:52.102Z,6.13
2023-05-17T16:01:21.992Z,6.77
2023-05-17T16:03:50.621Z,6.10
2023-05-17T16:06:20.075Z,7.00
2023-05-17T16:08:48.394Z,6.20
2023-05-17T16:11:17.209Z,6.77
2023-05-17T16:13:45.597Z,6.30
2023-05-17T16:16:14.667Z,6.53
2023-05-17T16:18:44.456Z,7.37
2023-05-17T16:21:13.614Z,7.20
2023-05-17T16:23:42.423Z,7.03
2023-05-17T16:26:10.962Z,7.70
2023-05-17T16:28:39.326Z,7.10
2023-05-17T16:31:07.916Z,7.90
2023-05-17T16:33:36.716Z,6.10
2023-05-17T16:36:07.082Z,8.10
2023-05-17T16:38:35.626Z,8.13
2023-05-17T16:41:04.014Z,7.13
2023-05-17T16:43:32.660Z,6.77
2023-05-17T16:46:01.138Z,7.87
2023-05-17T16:48:29.740Z,7.00
2023-05-17T16:50:59.580Z,7.40
2023-05-17T16:53:29.525Z,7.27
2023-05-17T16:55:57.891Z,7.57
2023-05-17T16:58:26.904Z,8.03
2023-05-17T17:00:55.168Z,9.30
2023-05-17T17:03:23.507Z,7.83
2023-05-17T17:05:51.900Z,7.00
2023-05-17T17:08:20.297Z,7.73
2023-05-17T17:10:50.043Z,6.80
2023-05-17T17:13:18.419Z,7.70
2023-05-17T17:15:46.809Z,7.30
2023-05-17T17:18:15.281Z,8.40
2023-05-17T17:20:44.106Z,8.30
2023-05-17T17:23:12.538Z,7.60
2023-05-17T17:25:40.982Z,8.93
2023-05-17T17:28:10.854Z,8.23
2023-05-17T17:30:39.231Z,8.20
2023-05-17T17:33:07.551Z,8.23
2023-05-17T17:35:35.943Z,7.50
2023-05-17T17:38:04.416Z,7.43
2023-05-17T17:40:32.909Z,7.67
2023-05-17T17:43:01.496Z,8.00
2023-05-17T17:45:31.222Z,8.40
2023-05-17T17:47:59.801Z,8.13
2023-05-17T17:50:28.278Z,7.80
2023-05-17T17:52:56.984Z,8.37
2023-05-17T17:55:25.455Z,8.57
2023-05-17T17:57:54.009Z,9.20
2023-05-17T18:00:22.785Z,7.90
2023-05-17T18:02:52.749Z,8.60
2023-05-17T18:05:21.755Z,7.67
2023-05-17T18:07:50.238Z,7.90
2023-05-17T18:10:18.663Z,8.37
2023-05-17T18:12:47.510Z,7.73
2023-05-17T18:15:16.611Z,7.73
2023-05-17T18:17:45.200Z,7.40
2023-05-17T18:20:15.049Z,7.80
2023-05-17T18:22:43.411Z,7.90
2023-05-17T18:25:11.934Z,9.20
2023-05-17T18:27:41.541Z,6.90
2023-05-17T18:30:10.872Z,7.83
2023-05-17T18:32:39.449Z,7.70
2023-05-17T18:35:08.577Z,7.67
2023-05-17T18:37:38.491Z,7.57
2023-05-17T18:40:08.081Z,8.10
2023-05-17T18:42:36.518Z,6.60
2023-05-17T18:45:05.348Z,7.20
2023-05-17T18:47:33.949Z,6.80
2023-05-17T18:50:02.252Z,6.90
2023-05-17T18:52:30.672Z,7.10
2023-05-17T18:55:00.398Z,7.33
2023-05-17T18:57:28.776Z,7.10
2023-05-17T18:59:57.300Z,7.20
2023-05-17T19:02:25.639Z,7.03
2023-05-17T19:04:54.031Z,7.00
2023-05-17T19:07:22.391Z,6.80
2023-05-17T19:09:50.816Z,6.40
2023-05-17T19:12:20.643Z,6.73
2023-05-17T19:14:49.016Z,6.33
2023-05-17T19:17:17.646Z,6.47
2023-05-17T19:19:46.054Z,5.80
2023-05-17T19:22:14.585Z,6.13
2023-05-17T19:24:42.891Z,6.33
2023-05-17T19:27:12.254Z,6.13
2023-05-17T19:29:42.084Z,6.00
2023-05-17T19:32:10.337Z,6.10
2023-05-17T19:34:38.680Z,7.23
2023-05-17T19:37:07.407Z,6.17
2023-05-17T19:39:36.534Z,6.00
2023-05-17T19:42:05.448Z,5.87
2023-05-17T19:44:33.896Z,5.50
2023-05-17T19:47:03.604Z,5.90
2023-05-17T19:49:32.033Z,5.47
2023-05-17T19:52:00.847Z,5.30
2023-05-17T19:54:29.959Z,5.80
2023-05-17T19:56:59.748Z,5.10
2023-05-17T19:59:28.216Z,5.00
2023-05-17T20:01:56.592Z,5.50
2023-05-17T20:04:26.434Z,5.13
2023-05-17T20:06:55.150Z,5.50
2023-05-17T20:09:26.916Z,4.90
2023-05-17T20:11:55.448Z,4.60
2023-05-17T20:14:23.757Z,4.60
2023-05-17T20:16:52.305Z,4.57
2023-05-17T20:19:20.829Z,4.67
2023-05-17T20:21:50.777Z,5.40
2023-05-17T20:24:19.501Z,4.37
2023-05-17T20:26:49.080Z,5.50
2023-05-17T20:29:18.531Z,4.57
2023-05-17T20:31:46.878Z,4.83
2023-05-17T20:34:15.281Z,4.30
2023-05-17T20:36:43.560Z,3.90
2023-05-17T20:39:15.364Z,3.80
2023-05-17T20:41:43.701Z,4.30
2023-05-17T20:44:12.727Z,4.00
2023-05-17T20:46:41.094Z,4.00
2023-05-17T20:49:09.974Z,3.80
2023-05-17T20:51:38.418Z,4.33
2023-05-17T20:54:08.894Z,4.37
2023-05-17T20:56:40.276Z,5.00
2023-05-17T20:59:08.979Z,4.90
2023-05-17T21:01:37.745Z,4.47
2023-05-17T21:04:06.214Z,3.77
2023-05-17T21:06:34.587Z,4.10
2023-05-17T21:09:03.010Z,4.60
2023-05-17T21:11:31.913Z,3.73
2023-05-17T21:14:01.616Z,4.00
2023-05-17T21:16:30.534Z,3.47
2023-05-17T21:18:58.973Z,4.03
2023-05-17T21:21:27.361Z,3.37
2023-05-17T21:23:55.802Z,3.23
2023-05-17T21:26:24.441Z,4.27
2023-05-17T21:28:52.719Z,3.37
2023-05-17T21:31:22.582Z,3.60
2023-05-17T21:33:51.784Z,3.57
2023-05-17T21:36:20.130Z,4.57
2023-05-17T21:38:48.445Z,3.53
2023-05-17T21:41:16.970Z,4.40
2023-05-17T21:43:45.334Z,3.43
2023-05-17T21:46:13.666Z,4.20
2023-05-17T21:48:43.581Z,3.77
2023-05-17T21:51:11.902Z,3.90
2023-05-17T21:53:40.185Z,4.10
2023-05-17T21:56:08.817Z,3.90
2023-05-17T21:58:37.227Z,3.40
2023-05-17T22:01:05.627Z,4.00
2023-05-17T22:03:34.069Z,3.50
2023-05-17T22:06:03.823Z,3.30
2023-05-17T22:08:33.231Z,3.60
2023-05-17T22:11:01.546Z,3.87
2023-05-17T22:13:32.808Z,3.50
2023-05-17T22:16:02.094Z,3.90
2023-05-17T22:18:32.170Z,2.80
2023-05-17T22:21:00.661Z,3.47
2023-05-17T22:23:30.573Z,3.50
2023-05-17T22:26:00.532Z,3.60
2023-05-17T22:28:29.218Z,3.27
2023-05-17T22:30:57.549Z,3.30
2023-05-17T22:33:25.928Z,3.47
2023-05-17T22:35:54.407Z,3.77
2023-05-17T22:38:23.788Z,3.70
2023-05-17T22:40:53.531Z,3.43
2023-05-17T22:43:22.735Z,3.43
2023-05-17T22:45:51.307Z,3.20
2023-05-17T22:48:21.198Z,3.00
2023-05-17T22:50:50.658Z,3.00
2023-05-17T22:53:19.311Z,2.93
2023-05-17T22:55:49.129Z,2.90
2023-05-17T22:58:19.641Z,2.93
2023-05-17T23:00:51.068Z,3.10
2023-05-17T23:03:20.126Z,3.33
2023-05-17T23:05:48.555Z,3.10
2023-05-17T23:08:17.050Z,2.93
2023-05-17T23:10:46.016Z,4.20
2023-05-17T23:13:14.605Z,3.13
2023-05-17T23:15:46.905Z,2.93
2023-05-17T23:18:16.154Z,3.07
2023-05-17T23:20:45.658Z,2.87
2023-05-17T23:23:15.539Z,3.17
2023-05-17T23:25:44.907Z,3.40
2023-05-17T23:28:14.682Z,3.20
2023-05-17T23:30:44.732Z,3.27
2023-05-17T23:33:13.017Z,3.30
2023-05-17T23:35:41.315Z,2.93
2023-05-17T23:38:09.711Z,3.00
2023-05-17T23:40:38.303Z,3.57
2023-05-17T23:43:08.728Z,3.70
2023-05-17T23:45:37.190Z,3.03
2023-05-17T23:48:09.904Z,2.90
2023-05-17T23:50:38.355Z,2.83
2023-05-17T23:53:09.883Z,2.83
2023-05-17T23:55:38.817Z,2.50
2023-05-17T23:58:07.351Z,2.70
